createdAt,value
2022-11-30T00:01:39.940Z,61.90
2022-11-30T00:04:09.660Z,61.70
2022-11-30T00:06:43.308Z,61.80
2022-11-30T00:09:14.079Z,62.00
2022-11-30T00:11:42.647Z,61.90
2022-11-30T00:14:11.532Z,62.00
2022-11-30T00:16:40.186Z,62.00
2022-11-30T00:19:08.831Z,62.00
2022-11-30T00:21:37.032Z,61.80
2022-11-30T00:24:08.226Z,62.20
2022-11-30T00:26:36.609Z,61.90
2022-11-30T00:29:05.251Z,62.00
2022-11-30T00:31:33.777Z,62.00
2022-11-30T00:34:02.420Z,61.90
2022-11-30T00:36:31.310Z,62.20
2022-11-30T00:38:59.867Z,61.80
2022-11-30T00:41:30.378Z,62.00
2022-11-30T00:44:00.236Z,61.70
2022-11-30T00:46:29.818Z,62.00
2022-11-30T00:48:58.806Z,62.00
2022-11-30T00:51:27.409Z,62.00
2022-11-30T00:53:56.121Z,61.90
2022-11-30T00:56:25.025Z,62.00
2022-11-30T00:58:57.243Z,61.70
2022-11-30T01:01:25.825Z,62.00
2022-11-30T01:03:54.168Z,62.00
2022-11-30T01:06:22.779Z,61.90
2022-11-30T01:08:51.341Z,61.80
2022-11-30T01:11:23.988Z,62.00
2022-11-30T01:13:55.108Z,61.80
2022-11-30T01:16:26.141Z,62.10
2022-11-30T01:18:54.727Z,61.90
2022-11-30T01:21:25.492Z,61.90
2022-11-30T01:23:54.356Z,61.70
2022-11-30T01:26:24.064Z,62.00
2022-11-30T01:28:55.145Z,61.70
2022-11-30T01:31:24.780Z,61.70
2022-11-30T01:33:54.774Z,61.60
2022-11-30T01:36:25.919Z,61.90
2022-11-30T01:38:57.495Z,61.70
2022-11-30T01:41:27.917Z,61.90
2022-11-30T01:44:26.358Z,61.80
2022-11-30T01:46:57.503Z,61.80
2022-11-30T01:49:31.073Z,61.80
2022-11-30T01:52:03.990Z,62.00
2022-11-30T01:54:36.078Z,61.80
2022-11-30T01:57:11.049Z,61.60
2022-11-30T01:59:40.878Z,61.90
2022-11-30T02:02:09.644Z,61.80
2022-11-30T02:04:39.709Z,61.80
2022-11-30T02:07:09.772Z,61.80
2022-11-30T02:09:43.293Z,61.80
2022-11-30T02:12:22.199Z,61.60
2022-11-30T02:14:59.851Z,62.10
2022-11-30T02:17:37.411Z,61.60
2022-11-30T02:20:42.434Z,61.70
2022-11-30T02:23:25.585Z,61.70
2022-11-30T02:26:03.654Z,61.70
2022-11-30T02:29:03.252Z,61.50
2022-11-30T02:31:35.846Z,61.40
2022-11-30T02:34:05.858Z,62.00
2022-11-30T02:36:34.677Z,61.80
2022-11-30T02:39:02.944Z,61.80
2022-11-30T02:41:38.221Z,61.80
2022-11-30T02:44:11.169Z,61.70
2022-11-30T02:47:01.873Z,61.60
2022-11-30T02:49:36.504Z,61.60
2022-11-30T02:52:06.222Z,61.50
2022-11-30T02:54:35.272Z,61.60
2022-11-30T02:57:03.851Z,61.70
2022-11-30T02:59:34.074Z,61.70
2022-11-30T03:02:02.435Z,61.70
2022-11-30T03:04:30.745Z,61.90
2022-11-30T03:06:59.363Z,61.50
2022-11-30T03:09:27.852Z,61.70
2022-11-30T03:11:56.328Z,61.50
2022-11-30T03:14:24.921Z,61.70
2022-11-30T03:16:54.623Z,61.50
2022-11-30T03:19:22.940Z,61.70
2022-11-30T03:21:51.329Z,61.80
2022-11-30T03:24:19.911Z,61.80
2022-11-30T03:26:48.419Z,62.10
2022-11-30T03:29:17.002Z,61.60
2022-11-30T03:31:46.168Z,61.60
2022-11-30T03:34:15.909Z,61.70
2022-11-30T03:36:44.405Z,62.00
2022-11-30T03:39:12.731Z,61.60
2022-11-30T03:41:41.125Z,61.70
2022-11-30T03:44:09.624Z,61.90
2022-11-30T03:46:38.054Z,61.90
2022-11-30T03:49:06.509Z,61.80
2022-11-30T03:51:36.459Z,61.70
2022-11-30T03:54:05.217Z,61.50
2022-11-30T03:56:35.951Z,61.70
2022-11-30T03:59:04.702Z,61.60
2022-11-30T04:01:33.742Z,61.50
2022-11-30T04:04:02.159Z,61.40
2022-11-30T04:06:30.924Z,61.40
2022-11-30T04:09:00.632Z,61.50
2022-11-30T04:11:29.488Z,61.60
2022-11-30T04:13:58.011Z,61.30
2022-11-30T04:16:26.614Z,61.40
2022-11-30T04:18:55.238Z,61.70
2022-11-30T04:21:23.690Z,61.80
2022-11-30T04:23:52.148Z,61.70
2022-11-30T04:26:21.916Z,61.50
2022-11-30T04:28:53.321Z,61.50
2022-11-30T04:31:21.573Z,61.30
2022-11-30T04:33:54.335Z,61.50
2022-11-30T04:36:22.760Z,61.30
2022-11-30T04:38:51.296Z,61.50
2022-11-30T04:41:20.977Z,61.60
2022-11-30T04:43:49.663Z,61.60
2022-11-30T04:46:18.187Z,61.70
2022-11-30T04:48:46.696Z,61.70
2022-11-30T04:51:15.119Z,61.70
2022-11-30T04:53:43.434Z,61.70
2022-11-30T04:56:13.026Z,61.90
2022-11-30T04:58:43.264Z,61.80
2022-11-30T05:01:11.588Z,61.90
2022-11-30T05:03:40.197Z,61.60
2022-11-30T05:06:08.568Z,62.00
2022-11-30T05:08:37.016Z,61.50
2022-11-30T05:11:05.424Z,61.50
2022-11-30T05:13:33.769Z,61.70
2022-11-30T05:16:03.590Z,61.60
2022-11-30T05:18:33.597Z,61.90
2022-11-30T05:21:02.013Z,61.50
2022-11-30T05:23:30.748Z,61.80
2022-11-30T05:25:59.088Z,61.80
2022-11-30T05:28:27.530Z,61.60
2022-11-30T05:30:56.109Z,62.00
2022-11-30T05:33:25.994Z,61.80
2022-11-30T05:35:54.492Z,61.30
2022-11-30T05:38:23.241Z,61.30
2022-11-30T05:40:51.808Z,61.50
2022-11-30T05:43:20.440Z,61.60
2022-11-30T05:45:48.708Z,61.60
2022-11-30T05:48:17.385Z,61.70
2022-11-30T05:50:47.162Z,61.50
2022-11-30T05:53:15.893Z,62.10
2022-11-30T05:55:44.511Z,61.70
2022-11-30T05:58:13.572Z,62.00
2022-11-30T06:00:43.445Z,61.80
2022-11-30T06:03:12.169Z,61.60
2022-11-30T06:05:42.538Z,61.70
2022-11-30T06:08:12.326Z,61.50
2022-11-30T06:10:40.875Z,61.60
2022-11-30T06:13:09.776Z,61.90
2022-11-30T06:15:38.223Z,61.50
2022-11-30T06:18:07.938Z,61.80
2022-11-30T06:20:36.903Z,61.60
2022-11-30T06:23:05.542Z,61.90
2022-11-30T06:25:35.650Z,61.60
2022-11-30T06:28:04.307Z,61.60
2022-11-30T06:30:32.481Z,61.70
2022-11-30T06:33:02.932Z,62.20
2022-11-30T06:35:31.213Z,61.60
2022-11-30T06:38:00.826Z,61.70
2022-11-30T06:40:29.112Z,62.10
2022-11-30T06:42:58.986Z,61.50
2022-11-30T06:45:28.278Z,61.30
2022-11-30T06:47:57.068Z,61.60
2022-11-30T06:50:26.191Z,61.60
2022-11-30T06:52:57.117Z,61.50
2022-11-30T06:55:25.600Z,61.60
2022-11-30T06:57:53.869Z,61.70
2022-11-30T07:00:23.979Z,61.60
2022-11-30T07:02:52.438Z,61.80
2022-11-30T07:05:20.837Z,61.70
2022-11-30T07:07:49.125Z,61.80
2022-11-30T07:10:20.256Z,61.70
2022-11-30T07:12:49.080Z,61.50
2022-11-30T07:15:17.959Z,61.60
2022-11-30T07:17:47.588Z,61.50
2022-11-30T07:20:16.563Z,61.50
2022-11-30T07:22:45.239Z,61.70
2022-11-30T07:25:31.117Z,61.60
2022-11-30T07:28:02.739Z,61.30
2022-11-30T07:30:32.630Z,61.40
2022-11-30T07:33:02.261Z,61.40
2022-11-30T07:35:30.713Z,61.60
2022-11-30T07:37:59.816Z,61.80
2022-11-30T07:40:28.311Z,61.50
2022-11-30T07:42:56.667Z,61.60
2022-11-30T07:45:25.387Z,61.30
2022-11-30T07:47:53.635Z,61.40
2022-11-30T07:50:23.839Z,61.50
2022-11-30T07:52:52.270Z,61.60
2022-11-30T07:55:23.666Z,61.30
2022-11-30T07:57:51.930Z,61.40
2022-11-30T08:00:20.685Z,61.40
2022-11-30T08:02:51.613Z,61.60
2022-11-30T08:05:19.963Z,61.40
2022-11-30T08:07:53.651Z,61.70
2022-11-30T08:10:22.818Z,61.70
2022-11-30T08:12:51.520Z,61.50
2022-11-30T08:15:21.222Z,61.90
2022-11-30T08:17:55.025Z,61.30
2022-11-30T08:20:24.296Z,61.60
2022-11-30T08:22:54.467Z,61.40
2022-11-30T08:25:22.701Z,61.30
2022-11-30T08:27:51.617Z,61.70
2022-11-30T08:30:20.235Z,61.10
2022-11-30T08:32:49.367Z,61.30
2022-11-30T08:35:17.774Z,61.40
2022-11-30T08:37:46.145Z,61.40
2022-11-30T08:40:22.629Z,61.10
2022-11-30T08:42:52.108Z,61.50
2022-11-30T08:45:20.503Z,61.30
2022-11-30T08:47:48.773Z,61.40
2022-11-30T08:50:18.141Z,61.20
2022-11-30T08:52:46.477Z,61.20
2022-11-30T08:55:16.431Z,61.00
2022-11-30T08:57:44.961Z,61.20
2022-11-30T09:00:14.448Z,61.10
2022-11-30T09:02:42.963Z,61.20
2022-11-30T09:05:12.157Z,61.40
2022-11-30T09:07:41.174Z,61.10
2022-11-30T09:10:10.512Z,61.30
2022-11-30T09:12:43.449Z,61.10
2022-11-30T09:15:13.377Z,61.00
2022-11-30T09:17:43.611Z,61.00
2022-11-30T09:20:13.152Z,61.30
2022-11-30T09:22:42.566Z,61.10
2022-11-30T09:25:11.116Z,61.00
2022-11-30T09:27:42.676Z,60.90
2022-11-30T09:30:12.076Z,61.10
2022-11-30T09:32:41.030Z,61.10
2022-11-30T09:35:12.744Z,61.10
2022-11-30T09:37:41.679Z,61.10
2022-11-30T09:40:11.568Z,60.90
2022-11-30T09:42:53.361Z,61.10
2022-11-30T09:45:28.848Z,61.20
2022-11-30T09:48:22.324Z,61.10
2022-11-30T09:50:52.172Z,60.90
2022-11-30T09:53:29.387Z,61.00
2022-11-30T09:56:19.482Z,60.80
2022-11-30T09:58:54.068Z,61.00
2022-11-30T10:01:23.435Z,60.80
2022-11-30T10:03:51.804Z,60.80
2022-11-30T10:06:26.499Z,60.70
2022-11-30T10:09:08.172Z,60.60
2022-11-30T10:11:50.169Z,60.90
2022-11-30T10:15:00.329Z,60.80
2022-11-30T10:17:38.142Z,60.70
2022-11-30T10:20:29.383Z,60.50
2022-11-30T10:23:12.739Z,60.50
2022-11-30T10:25:49.043Z,60.80
2022-11-30T10:31:15.729Z,60.80
2022-11-30T10:33:47.307Z,60.50
2022-11-30T10:36:26.561Z,60.20
2022-11-30T10:38:59.025Z,60.10
2022-11-30T10:41:33.147Z,60.10
2022-11-30T10:44:06.448Z,60.20
2022-11-30T10:46:39.210Z,60.50
2022-11-30T10:49:12.522Z,60.40
2022-11-30T10:51:43.168Z,60.20
2022-11-30T10:54:15.954Z,60.20
2022-11-30T10:56:44.708Z,60.20
2022-11-30T10:59:19.614Z,60.10
2022-11-30T11:01:49.540Z,60.10
2022-11-30T11:04:19.524Z,60.20
2022-11-30T11:06:51.803Z,60.40
2022-11-30T11:09:34.852Z,59.90
2022-11-30T11:12:06.406Z,59.90
2022-11-30T11:14:38.232Z,60.10
2022-11-30T11:17:22.847Z,60.30
2022-11-30T11:19:52.222Z,59.70
2022-11-30T11:22:22.799Z,59.80
2022-11-30T11:24:54.583Z,60.20
2022-11-30T11:27:28.332Z,59.70
2022-11-30T11:30:05.334Z,59.60
2022-11-30T11:32:36.043Z,59.20
2022-11-30T11:35:05.624Z,59.10
2022-11-30T11:37:38.267Z,59.10
2022-11-30T11:40:16.231Z,59.20
2022-11-30T11:42:48.212Z,59.40
2022-11-30T11:45:19.371Z,59.60
2022-11-30T11:47:59.666Z,59.30
2022-11-30T11:51:05.039Z,59.20
2022-11-30T11:53:25.709Z,59.10
2022-11-30T11:56:01.955Z,59.30
2022-11-30T11:58:37.893Z,59.40
2022-11-30T12:01:38.788Z,59.10
2022-11-30T12:04:18.036Z,59.30
2022-11-30T12:06:47.595Z,59.30
2022-11-30T12:09:21.819Z,59.20
2022-11-30T12:11:51.280Z,59.40
2022-11-30T12:14:20.806Z,58.90
2022-11-30T12:17:22.606Z,58.80
2022-11-30T12:20:01.281Z,58.60
2022-11-30T12:22:47.900Z,58.70
2022-11-30T12:25:25.029Z,59.00
2022-11-30T12:28:02.095Z,58.90
2022-11-30T12:30:41.303Z,59.10
2022-11-30T12:33:16.636Z,59.10
2022-11-30T12:36:02.764Z,59.10
2022-11-30T12:38:45.203Z,58.60
2022-11-30T12:41:36.804Z,59.20
2022-11-30T12:44:18.772Z,58.80
2022-11-30T12:46:54.829Z,59.00
2022-11-30T12:49:37.095Z,58.60
2022-11-30T12:52:21.814Z,58.80
2022-11-30T12:54:57.528Z,58.50
2022-11-30T12:57:29.585Z,58.60
2022-11-30T13:00:04.725Z,58.60
2022-11-30T13:02:57.022Z,58.30
2022-11-30T13:05:34.863Z,58.10
2022-11-30T13:08:12.883Z,58.60
2022-11-30T13:10:45.604Z,58.00
2022-11-30T13:13:18.536Z,58.20
2022-11-30T13:15:49.754Z,58.40
2022-11-30T13:18:21.059Z,58.00
2022-11-30T13:20:57.352Z,58.10
2022-11-30T13:23:36.047Z,57.80
2022-11-30T13:26:10.281Z,58.00
2022-11-30T13:28:56.340Z,57.80
2022-11-30T13:31:27.954Z,58.00
2022-11-30T13:34:00.821Z,58.10
2022-11-30T13:36:34.680Z,57.80
2022-11-30T13:39:24.308Z,57.60
2022-11-30T13:42:26.706Z,57.60
2022-11-30T13:44:55.657Z,57.30
2022-11-30T13:47:30.066Z,57.50
2022-11-30T13:50:01.648Z,57.50
2022-11-30T13:53:03.786Z,57.90
2022-11-30T13:56:05.459Z,57.60
2022-11-30T13:58:34.538Z,57.10
2022-11-30T14:01:06.228Z,57.60
2022-11-30T14:03:34.559Z,57.70
2022-11-30T14:06:28.926Z,57.70
2022-11-30T14:08:57.617Z,57.80
2022-11-30T14:11:42.797Z,57.60
2022-11-30T14:14:48.557Z,57.90
2022-11-30T14:17:21.237Z,58.00
2022-11-30T14:19:52.900Z,58.00
2022-11-30T14:22:22.047Z,58.10
2022-11-30T14:24:51.198Z,58.60
2022-11-30T14:27:24.053Z,58.30
2022-11-30T14:29:57.997Z,58.40
2022-11-30T14:32:35.155Z,58.20
2022-11-30T14:35:12.375Z,58.20
2022-11-30T14:37:46.633Z,58.30
2022-11-30T14:40:18.980Z,57.90
2022-11-30T14:42:51.796Z,58.00
2022-11-30T14:45:26.479Z,58.20
2022-11-30T14:48:06.462Z,58.30
2022-11-30T14:50:35.943Z,58.50
2022-11-30T14:53:19.211Z,58.20
2022-11-30T14:55:52.692Z,58.50
2022-11-30T14:58:32.258Z,58.50
2022-11-30T15:01:00.971Z,58.80
2022-11-30T15:03:38.909Z,58.10
2022-11-30T15:06:09.600Z,58.40
2022-11-30T15:08:42.402Z,57.80
2022-11-30T15:11:12.638Z,58.30
2022-11-30T15:13:48.518Z,58.60
2022-11-30T15:16:21.405Z,58.20
2022-11-30T15:18:50.815Z,58.20
2022-11-30T15:21:22.492Z,58.50
2022-11-30T15:23:51.569Z,58.60
2022-11-30T15:26:24.044Z,58.30
2022-11-30T15:28:57.892Z,58.60
2022-11-30T15:31:32.851Z,58.60
2022-11-30T15:34:01.307Z,58.20
2022-11-30T15:36:36.533Z,58.40
2022-11-30T15:39:07.687Z,58.30
2022-11-30T15:41:37.233Z,58.10
2022-11-30T15:44:06.998Z,58.40
2022-11-30T15:46:44.264Z,58.70
2022-11-30T15:49:26.437Z,58.30
2022-11-30T15:52:05.389Z,58.30
2022-11-30T15:54:46.392Z,58.30
2022-11-30T15:57:15.984Z,58.70
2022-11-30T15:59:46.815Z,58.80
2022-11-30T16:02:27.325Z,58.80
2022-11-30T16:05:13.629Z,58.90
2022-11-30T16:07:50.878Z,58.70
2022-11-30T16:10:21.920Z,58.80
2022-11-30T16:12:52.674Z,58.80
2022-11-30T16:15:27.318Z,58.90
2022-11-30T16:17:59.686Z,59.10
2022-11-30T16:20:28.198Z,58.90
2022-11-30T16:22:59.953Z,58.60
2022-11-30T16:25:33.863Z,58.50
2022-11-30T16:28:02.871Z,58.40
2022-11-30T16:30:32.968Z,59.10
2022-11-30T16:33:01.263Z,59.00
2022-11-30T16:35:38.300Z,58.30
2022-11-30T16:38:06.905Z,57.90
2022-11-30T16:40:39.044Z,58.30
2022-11-30T16:43:07.843Z,58.60
2022-11-30T16:45:38.898Z,58.40
2022-11-30T16:48:07.829Z,58.20
2022-11-30T16:50:36.459Z,58.20
2022-11-30T16:53:05.804Z,58.10
2022-11-30T16:55:37.870Z,58.40
2022-11-30T16:58:06.416Z,58.40
2022-11-30T17:00:35.146Z,58.30
2022-11-30T17:03:09.923Z,58.00
2022-11-30T17:05:38.339Z,58.60
2022-11-30T17:08:07.267Z,58.20
2022-11-30T17:10:38.442Z,58.50
2022-11-30T17:13:07.599Z,58.40
2022-11-30T17:15:36.567Z,58.70
2022-11-30T17:18:08.308Z,58.30
2022-11-30T17:20:39.756Z,58.40
2022-11-30T17:23:09.135Z,58.40
2022-11-30T17:25:38.584Z,58.40
2022-11-30T17:28:11.664Z,58.40
2022-11-30T17:30:40.272Z,58.40
2022-11-30T17:33:17.590Z,58.30
2022-11-30T17:35:53.055Z,58.40
2022-11-30T17:38:34.230Z,58.70
2022-11-30T17:41:05.829Z,58.10
2022-11-30T17:43:34.223Z,57.70
2022-11-30T17:46:06.437Z,58.20
2022-11-30T17:48:36.926Z,58.00
2022-11-30T17:51:06.108Z,57.90
2022-11-30T17:53:34.617Z,58.30
2022-11-30T17:56:04.173Z,57.80
2022-11-30T17:58:36.947Z,58.10
2022-11-30T18:01:09.325Z,57.80
2022-11-30T18:03:39.696Z,57.60
2022-11-30T18:06:08.288Z,57.80
2022-11-30T18:08:38.050Z,58.20
2022-11-30T18:11:10.008Z,57.90
2022-11-30T18:13:39.029Z,57.90
2022-11-30T18:16:09.970Z,58.00
2022-11-30T18:18:45.763Z,57.70
2022-11-30T18:21:18.637Z,57.80
2022-11-30T18:23:48.254Z,57.80
2022-11-30T18:26:19.318Z,57.40
2022-11-30T18:28:48.267Z,57.80
2022-11-30T18:31:17.676Z,57.80
2022-11-30T18:33:48.233Z,58.10
2022-11-30T18:36:16.801Z,58.10
2022-11-30T18:38:45.452Z,57.80
2022-11-30T18:41:14.163Z,57.80
2022-11-30T18:43:42.588Z,57.70
2022-11-30T18:46:13.132Z,57.50
2022-11-30T18:48:42.307Z,57.60
2022-11-30T18:51:16.446Z,58.00
2022-11-30T18:53:45.204Z,58.10
2022-11-30T18:56:16.613Z,57.60
2022-11-30T18:58:46.156Z,57.90
2022-11-30T19:01:16.914Z,57.90
2022-11-30T19:03:50.924Z,57.60
2022-11-30T19:06:21.785Z,57.80
2022-11-30T19:08:50.406Z,58.10
2022-11-30T19:11:19.228Z,57.70
2022-11-30T19:13:47.574Z,57.70
2022-11-30T19:16:17.894Z,57.80
2022-11-30T19:18:46.331Z,57.60
2022-11-30T19:21:16.968Z,57.50
2022-11-30T19:23:47.248Z,57.50
2022-11-30T19:26:16.412Z,57.40
2022-11-30T19:28:45.621Z,57.70
2022-11-30T19:31:15.895Z,57.60
2022-11-30T19:33:47.376Z,58.20
2022-11-30T19:36:18.277Z,57.70
2022-11-30T19:38:49.825Z,57.20
2022-11-30T19:41:19.619Z,57.30
2022-11-30T19:43:54.741Z,58.00
2022-11-30T19:46:34.085Z,57.30
2022-11-30T19:49:02.691Z,58.00
2022-11-30T19:51:32.130Z,57.80
2022-11-30T19:54:03.381Z,57.60
2022-11-30T19:56:34.599Z,57.50
2022-11-30T19:59:05.568Z,57.50
2022-11-30T20:01:36.091Z,57.50
2022-11-30T20:04:05.906Z,57.90
2022-11-30T20:06:36.944Z,57.80
2022-11-30T20:09:08.656Z,57.60
2022-11-30T20:11:38.109Z,57.50
2022-11-30T20:14:06.569Z,57.60
2022-11-30T20:16:35.112Z,57.80
2022-11-30T20:19:03.711Z,57.60
2022-11-30T20:21:35.019Z,58.00
2022-11-30T20:24:07.085Z,57.50
2022-11-30T20:26:37.734Z,57.70
2022-11-30T20:29:07.823Z,57.70
2022-11-30T20:31:38.559Z,57.60
2022-11-30T20:34:08.135Z,57.60
2022-11-30T20:36:36.922Z,57.50
2022-11-30T20:39:08.412Z,57.70
2022-11-30T20:41:36.818Z,57.70
2022-11-30T20:44:05.451Z,57.60
2022-11-30T20:46:35.550Z,58.00
2022-11-30T20:49:11.595Z,57.50
2022-11-30T20:51:40.588Z,57.30
2022-11-30T20:54:12.129Z,57.60
2022-11-30T20:56:40.797Z,57.10
2022-11-30T20:59:15.585Z,57.60
2022-11-30T21:01:46.659Z,57.50
2022-11-30T21:04:15.163Z,57.00
2022-11-30T21:06:45.753Z,57.40
2022-11-30T21:09:17.615Z,57.30
2022-11-30T21:11:46.712Z,57.30
2022-11-30T21:14:17.551Z,57.10
2022-11-30T21:16:46.066Z,57.60
2022-11-30T21:19:15.252Z,57.30
2022-11-30T21:21:43.765Z,57.60
2022-11-30T21:24:13.126Z,58.10
2022-11-30T21:26:43.857Z,57.30
2022-11-30T21:29:13.683Z,57.70
2022-11-30T21:31:42.085Z,57.80
2022-11-30T21:34:10.649Z,57.50
2022-11-30T21:36:39.259Z,57.30
2022-11-30T21:39:08.267Z,57.50
2022-11-30T21:41:42.079Z,57.30
2022-11-30T21:44:14.765Z,57.50
2022-11-30T21:46:45.432Z,57.40
2022-11-30T21:49:14.745Z,57.60
2022-11-30T21:51:43.069Z,57.30
2022-11-30T21:54:13.462Z,57.10
2022-11-30T21:56:42.733Z,57.30
2022-11-30T21:59:14.651Z,57.40
2022-11-30T22:01:44.177Z,57.50
2022-11-30T22:04:15.319Z,57.20
2022-11-30T22:06:44.157Z,57.50
2022-11-30T22:09:14.670Z,57.50
2022-11-30T22:11:45.015Z,57.20
2022-11-30T22:14:17.204Z,57.30
2022-11-30T22:16:46.096Z,57.40
2022-11-30T22:19:15.433Z,57.30
2022-11-30T22:21:49.449Z,57.20
2022-11-30T22:24:19.057Z,57.20
2022-11-30T22:26:48.957Z,57.60
2022-11-30T22:29:20.798Z,57.80
2022-11-30T22:31:51.049Z,57.60
2022-11-30T22:34:27.315Z,57.70
2022-11-30T22:36:55.761Z,57.60
2022-11-30T22:39:24.430Z,57.30
2022-11-30T22:41:56.020Z,57.40
2022-11-30T22:44:26.657Z,57.60
2022-11-30T22:46:55.332Z,58.00
2022-11-30T22:49:24.240Z,57.60
2022-11-30T22:51:52.715Z,57.80
2022-11-30T22:54:21.116Z,57.30
2022-11-30T22:56:49.510Z,57.90
2022-11-30T22:59:18.009Z,57.70
2022-11-30T23:01:49.932Z,57.70
2022-11-30T23:04:21.043Z,57.90
2022-11-30T23:06:50.384Z,57.40
2022-11-30T23:09:21.676Z,57.80
2022-11-30T23:11:51.936Z,58.20
2022-11-30T23:14:21.056Z,58.00
2022-11-30T23:16:50.812Z,58.00
2022-11-30T23:19:19.361Z,57.80
2022-11-30T23:21:49.952Z,58.10
2022-11-30T23:24:21.451Z,58.00
2022-11-30T23:26:50.835Z,58.10
2022-11-30T23:29:19.678Z,57.40
2022-11-30T23:31:50.319Z,57.80
2022-11-30T23:34:22.224Z,57.60
2022-11-30T23:36:51.597Z,57.90
2022-11-30T23:39:21.750Z,57.70
2022-11-30T23:41:50.410Z,57.70
2022-11-30T23:44:19.103Z,57.60
2022-11-30T23:46:48.061Z,57.20
2022-11-30T23:49:18.236Z,57.50
2022-11-30T23:51:46.978Z,57.50
2022-11-30T23:54:15.293Z,57.60
2022-11-30T23:56:44.051Z,57.70
2022-11-30T23:59:12.497Z,57.60
